메인 페이지
METAR-TAF:

METAR-TAF

공항 :

산루이스포토시 주, 멕시코

위도: 22-09N, 경도: 100-59W, 고도: 1870m

현재 날씨관측

예보는 1 시간 9분 전, 08:43시(UTC)에 발표되었습니다.
무풍
온도 18°C
습도 68%
기압 1024 hPa
시정: 11.3km
맑음

METAR: MMSP 300843Z 00000KT 7SM SKC 18/12 A3024 RMK SLP069 57007 973 AC

시각: 04:52 (09:52 UTC)

예보

예보는 4 시간 35분 전, 05:17시(UTC)에 발표되었습니다.
예보 대상 시간: 30일 06시부터 31일 06시까지 (UTC)
동남동5kt
시정: 10km
고도 8000ft 상공 구름 많음
일시적
30일 11시부터 30일 15시까지 (UTC)
시정: 4.8km
고도 1000ft 상공 구름 보통
박무
30일 1800시부터 (UTC)
동남동10kt
시정: 10km
고도 2000ft 상공 구름 보통
일시적
30일 21시부터 31일 01시까지 (UTC)
고도 2000ft 상공 구름 보통, 적란운.
31일 0300시부터 (UTC)
남동10kt
시정: 10km
고도 2000ft 상공 구름 보통
고도 23000ft 상공 구름 많음

TAF: MMSP 300517Z 3006/3106 12005KT P6SM BKN080 TX32/3021Z TN18/3013Z TEMPO 3011/3015 3SM BR SCT010 FM301800 12010KT P6SM SCT020 TEMPO 3021/3101 SCT020CB FM310300 13010KT P6SM SCT020 BKN230

4,000개 이상의 공항 관측 자료 및 예보 (METAR 및 TAF 보고).

지도상에서 검색 가능한 기상관측소가 노란 점과 빨간 점으로 표시되어 있습니다.

기상관측소 명을 보려면 표시 위로 마우스를 이동하세요.

날씨 관측과 예보를 보려면 클릭하세요.

지도 변경 : 확대하려면 엑스 표시가 있는 녹색 버튼, 축소하려면 빼기 표시가 있는 녹색 버튼, 다음 페이지의 지도를 보려면 녹색 화살표를 클릭하세요.


METAR-TAF: